Time;durP1;ratioP1;P1;durP2;ratioP2;P2;SDS_P1;SDS_P2;PMS_P1;PMS_P2;Temp;Humidity;BMP_temperature;BMP_pressure;BME280_temperature;BME280_humidity;BME280_pressure;Samples;Min_cycle;Max_cycle;Signal;HPM_P1;HPM_P2
2022/05/16 00:02:24;;;;;;;5.30;4.40;;;18.40;99.10;;;;;;5070199;28;20419;-43
2022/05/16 00:04:50;;;;;;;6.17;4.97;;;18.40;99.10;;;;;;5067263;28;20567;-44
2022/05/16 00:07:17;;;;;;;4.73;3.90;;;18.40;99.20;;;;;;5061298;28;20412;-43
2022/05/16 00:09:43;;;;;;;5.80;4.90;;;18.40;99.30;;;;;;5067544;28;20510;-43
2022/05/16 00:12:09;;;;;;;8.20;5.20;;;18.40;99.50;;;;;;5069657;28;20548;-43
2022/05/16 00:14:37;;;;;;;6.23;5.17;;;18.30;99.40;;;;;;5069378;28;20177;-43
2022/05/16 00:17:03;;;;;;;6.80;5.10;;;18.20;99.60;;;;;;5069612;28;20463;-43
2022/05/16 00:19:29;;;;;;;5.37;4.87;;;18.20;99.80;;;;;;5069392;28;20427;-43
2022/05/16 00:21:56;;;;;;;7.20;4.50;;;18.20;99.90;;;;;;5053856;28;20436;-43
2022/05/16 00:24:26;;;;;;;6.20;5.23;;;18.10;99.90;;;;;;5069145;28;20415;-43
2022/05/16 00:26:53;;;;;;;6.00;4.70;;;18.20;99.90;;;;;;5069159;28;20428;-43
2022/05/16 00:29:19;;;;;;;7.00;5.03;;;18.20;99.90;;;;;;5069494;28;20796;-43
2022/05/16 00:31:45;;;;;;;7.07;5.30;;;18.10;99.90;;;;;;5068552;28;20694;-43
2022/05/16 00:34:11;;;;;;;5.63;4.30;;;18.00;99.90;;;;;;5069772;28;20669;-43
2022/05/16 00:36:37;;;;;;;4.80;4.30;;;18.00;99.90;;;;;;5056271;28;20241;-43
2022/05/16 00:39:03;;;;;;;6.63;4.70;;;18.00;99.90;;;;;;5071053;28;20420;-43
2022/05/16 00:41:29;;;;;;;4.90;4.40;;;17.90;99.90;;;;;;5068496;28;20193;-44
2022/05/16 00:43:58;;;;;;;6.47;4.77;;;17.90;99.90;;;;;;5068969;28;20477;-43
2022/05/16 00:46:30;;;;;;;8.17;4.83;;;17.90;99.90;;;;;;5068837;28;20416;-43
2022/05/16 00:48:57;;;;;;;5.30;4.80;;;17.90;99.90;;;;;;5056479;28;21102;-43
2022/05/16 00:51:27;;;;;;;7.73;5.30;;;17.90;99.90;;;;;;5057321;28;20814;-43
2022/05/16 00:53:56;;;;;;;6.70;4.80;;;17.90;99.90;;;;;;5068855;28;20423;-43
2022/05/16 00:56:25;;;;;;;5.43;4.93;;;18.00;99.90;;;;;;5068417;28;20479;-44
2022/05/16 00:58:51;;;;;;;6.37;4.87;;;17.90;99.90;;;;;;5068827;28;20430;-43
2022/05/16 01:06:48;;;;;;;6.50;4.83;;;18.00;99.90;;;;;;5057368;28;20440;-43
2022/05/16 01:09:14;;;;;;;5.33;4.57;;;17.90;99.90;;;;;;5068474;28;20426;-43
2022/05/16 01:11:41;;;;;;;7.60;5.30;;;17.90;99.90;;;;;;5067667;28;20228;-43
2022/05/16 01:14:07;;;;;;;6.20;4.93;;;17.80;99.90;;;;;;5068343;28;20197;-43
2022/05/16 01:16:32;;;;;;;6.30;4.60;;;17.70;99.90;;;;;;5068105;28;20619;-43
2022/05/16 01:18:58;;;;;;;6.63;4.60;;;17.70;99.90;;;;;;5068309;28;20518;-43
2022/05/16 01:21:34;;;;;;;6.03;4.70;;;17.50;99.90;;;;;;5061306;28;20272;-43
2022/05/16 01:24:14;;;;;;;7.33;4.87;;;17.40;99.90;;;;;;5066352;28;20185;-43
2022/05/16 01:26:40;;;;;;;6.07;5.10;;;17.30;99.90;;;;;;5068342;28;20434;-43
2022/05/16 01:29:06;;;;;;;7.80;5.07;;;17.10;99.90;;;;;;5067547;28;20450;-43
2022/05/16 01:31:33;;;;;;;8.93;5.63;;;17.00;99.90;;;;;;5067723;28;20441;-43
2022/05/16 01:33:59;;;;;;;7.00;5.37;;;17.00;99.90;;;;;;5067892;28;20429;-44
2022/05/16 01:36:25;;;;;;;5.97;5.43;;;16.80;99.90;;;;;;5058340;28;20555;-43
2022/05/16 01:38:52;;;;;;;5.27;4.70;;;16.70;99.90;;;;;;5068899;28;20537;-43
2022/05/16 01:41:20;;;;;;;6.23;5.00;;;16.70;99.90;;;;;;5067305;28;20420;-43
2022/05/16 01:43:49;;;;;;;7.07;5.60;;;16.70;99.90;;;;;;5067412;28;20419;-44
2022/05/16 01:46:19;;;;;;;6.10;5.27;;;16.60;99.90;;;;;;5068000;28;20427;-43
2022/05/16 01:48:45;;;;;;;9.17;6.23;;;16.60;99.90;;;;;;5073318;28;20418;-43
2022/05/16 01:51:12;;;;;;;9.83;5.40;;;16.50;99.90;;;;;;5070504;28;20428;-43
2022/05/16 01:53:40;;;;;;;7.00;5.40;;;16.40;99.90;;;;;;5064302;28;20427;-43
2022/05/16 01:56:06;;;;;;;7.57;5.43;;;16.40;99.90;;;;;;5060030;28;20470;-43
2022/05/16 01:58:31;;;;;;;9.00;5.30;;;16.30;99.90;;;;;;5067958;28;20447;-43
2022/05/16 02:00:57;;;;;;;6.27;5.40;;;16.20;99.90;;;;;;5067085;28;20419;-43
2022/05/16 02:03:23;;;;;;;5.90;5.40;;;16.20;99.90;;;;;;5067517;28;20181;-43
2022/05/16 02:05:49;;;;;;;7.07;6.37;;;16.10;99.90;;;;;;5064496;28;20498;-43
2022/05/16 02:08:16;;;;;;;6.70;6.07;;;16.00;99.90;;;;;;5065842;28;20422;-43
2022/05/16 02:10:43;;;;;;;7.00;6.00;;;15.90;99.90;;;;;;5066246;28;20563;-43
2022/05/16 02:13:09;;;;;;;8.40;6.60;;;15.70;99.90;;;;;;5067706;28;20427;-43
2022/05/16 02:15:37;;;;;;;7.17;5.30;;;15.60;99.90;;;;;;5065609;28;20474;-43
2022/05/16 02:18:04;;;;;;;7.60;5.47;;;15.50;99.90;;;;;;5067490;28;20422;-43
2022/05/16 02:20:30;;;;;;;7.20;6.23;;;15.40;99.90;;;;;;5065832;28;20914;-43
2022/05/16 02:25:46;;;;;;;6.03;5.43;;;15.30;99.90;;;;;;5067248;28;20559;-43
2022/05/16 02:28:18;;;;;;;7.77;5.50;;;15.20;99.90;;;;;;5067577;28;20891;-43
2022/05/16 02:30:45;;;;;;;6.70;6.00;;;15.20;99.90;;;;;;5065314;28;20774;-43
2022/05/16 02:33:13;;;;;;;9.10;6.50;;;15.10;99.90;;;;;;5066628;28;20423;-43
2022/05/16 02:35:39;;;;;;;8.60;6.87;;;15.10;99.90;;;;;;5065880;28;20459;-43
2022/05/16 02:38:06;;;;;;;7.43;6.13;;;15.10;99.90;;;;;;5065749;28;20828;-43
2022/05/16 02:40:33;;;;;;;7.03;5.97;;;15.10;99.90;;;;;;5068589;28;20416;-43
2022/05/16 02:42:58;;;;;;;6.30;5.70;;;15.00;99.90;;;;;;5067401;28;20419;-43
2022/05/16 02:45:26;;;;;;;11.70;6.27;;;15.10;99.90;;;;;;5067061;28;20940;-43
2022/05/16 02:47:52;;;;;;;9.37;5.63;;;15.20;99.90;;;;;;5066971;28;20189;-43
2022/05/16 02:50:18;;;;;;;7.53;6.30;;;15.20;99.90;;;;;;5064825;28;20785;-43
2022/05/16 02:52:44;;;;;;;6.40;5.80;;;15.20;99.90;;;;;;5053977;28;20552;-43
2022/05/16 02:55:10;;;;;;;6.83;5.90;;;15.10;99.90;;;;;;5065479;28;20423;-43
2022/05/16 02:57:36;;;;;;;7.20;5.90;;;15.20;99.90;;;;;;5067084;28;20639;-43
2022/05/16 03:00:05;;;;;;;6.00;5.17;;;15.10;99.90;;;;;;5066374;28;20423;-43
2022/05/16 03:02:31;;;;;;;9.63;6.40;;;15.10;99.90;;;;;;5066930;28;20939;-43
2022/05/16 03:04:56;;;;;;;7.20;6.50;;;15.10;99.90;;;;;;5066783;28;20456;-43
2022/05/16 03:07:22;;;;;;;6.90;5.80;;;15.10;99.90;;;;;;5055702;28;20520;-43
2022/05/16 03:09:48;;;;;;;5.97;5.40;;;15.10;99.90;;;;;;5064768;28;20185;-43
2022/05/16 03:12:14;;;;;;;6.07;5.13;;;15.10;99.90;;;;;;5066743;28;20563;-43
2022/05/16 03:14:40;;;;;;;6.00;5.50;;;15.10;99.90;;;;;;5066971;28;20268;-43
2022/05/16 03:17:06;;;;;;;5.80;5.30;;;15.10;99.90;;;;;;5066580;28;20467;-43
2022/05/16 03:19:34;;;;;;;6.20;5.30;;;15.10;99.90;;;;;;5065428;28;20416;-43
2022/05/16 03:21:59;;;;;;;7.87;5.67;;;15.10;99.90;;;;;;5059289;28;20820;-43
2022/05/16 03:24:25;;;;;;;6.83;6.00;;;15.00;99.90;;;;;;5065115;28;20412;-43
2022/05/16 03:26:51;;;;;;;6.70;6.10;;;15.00;99.90;;;;;;5067059;28;20193;-43
2022/05/16 03:29:16;;;;;;;5.93;4.80;;;14.90;99.90;;;;;;5066488;28;20181;-43
2022/05/16 03:31:42;;;;;;;7.40;6.10;;;14.90;99.90;;;;;;5066042;28;20204;-43
2022/05/16 03:34:09;;;;;;;6.10;5.50;;;14.90;99.90;;;;;;5066257;28;20219;-43
2022/05/16 03:36:36;;;;;;;9.10;5.97;;;14.80;99.90;;;;;;5061670;28;20463;-43
2022/05/16 03:41:48;;;;;;;7.73;6.50;;;14.80;99.90;;;;;;5065953;28;20415;-43
2022/05/16 03:44:14;;;;;;;5.77;5.27;;;14.80;99.90;;;;;;5068552;28;20445;-43
2022/05/16 03:46:40;;;;;;;6.70;6.00;;;14.80;99.90;;;;;;5070017;28;20184;-44
2022/05/16 03:49:06;;;;;;;7.77;6.03;;;14.70;99.90;;;;;;5070332;28;20185;-43
2022/05/16 03:51:32;;;;;;;7.00;6.37;;;14.70;99.90;;;;;;5065334;28;20436;-43
2022/05/16 03:53:58;;;;;;;6.57;6.03;;;14.70;99.90;;;;;;5060995;28;20799;-43
2022/05/16 03:56:26;;;;;;;7.13;5.93;;;14.60;99.90;;;;;;5069994;28;20474;-43
2022/05/16 03:58:52;;;;;;;7.13;6.43;;;14.60;99.90;;;;;;5069766;28;20551;-43
2022/05/16 04:01:18;;;;;;;7.30;6.00;;;14.50;99.90;;;;;;5068958;28;20431;-43
2022/05/16 04:03:45;;;;;;;7.80;7.00;;;14.50;99.90;;;;;;5070213;28;20435;-43
2022/05/16 04:06:13;;;;;;;6.37;5.40;;;14.50;99.90;;;;;;5069664;28;20181;-43
2022/05/16 04:08:39;;;;;;;8.17;7.40;;;14.50;99.90;;;;;;5074837;28;20439;-43
2022/05/16 04:11:05;;;;;;;9.50;6.70;;;14.50;99.90;;;;;;5068820;28;20427;-43
2022/05/16 04:13:32;;;;;;;6.23;5.63;;;14.60;99.90;;;;;;5069564;28;20455;-43
2022/05/16 04:15:58;;;;;;;6.07;5.50;;;14.70;99.90;;;;;;5069316;28;20479;-43
2022/05/16 04:18:24;;;;;;;6.63;5.57;;;14.80;99.90;;;;;;5069738;28;20420;-43
2022/05/16 04:20:50;;;;;;;9.77;6.00;;;15.00;99.90;;;;;;5084060;28;20430;-43
2022/05/16 04:23:16;;;;;;;9.13;5.60;;;15.10;99.90;;;;;;5061128;28;20427;-43
2022/05/16 04:25:41;;;;;;;5.60;4.80;;;15.10;99.90;;;;;;5069213;28;20201;-43
2022/05/16 04:28:09;;;;;;;6.83;6.07;;;15.10;99.90;;;;;;5069312;28;20533;-43
2022/05/16 04:30:37;;;;;;;10.50;5.60;;;15.20;99.90;;;;;;5067353;28;20250;-43
2022/05/16 04:33:04;;;;;;;5.60;4.30;;;15.30;99.90;;;;;;5069660;28;20917;-43
2022/05/16 04:35:30;;;;;;;6.80;4.47;;;15.40;99.90;;;;;;5068910;28;20534;-43
2022/05/16 04:37:55;;;;;;;6.70;5.00;;;15.60;99.90;;;;;;5059341;28;20432;-43
2022/05/16 04:40:21;;;;;;;7.90;4.53;;;15.70;99.90;;;;;;5067940;28;20938;-43
2022/05/16 04:42:48;;;;;;;4.30;3.90;;;15.90;99.90;;;;;;5062259;28;20236;-43
2022/05/16 04:45:25;;;;;;;5.40;4.50;;;16.00;99.90;;;;;;5068597;28;20211;-43
2022/05/16 04:47:56;;;;;;;6.10;5.13;;;16.10;99.90;;;;;;5064308;28;20515;-43
2022/05/16 04:50:29;;;;;;;7.03;4.00;;;16.10;99.90;;;;;;5067701;28;20435;-43
2022/05/16 04:52:56;;;;;;;5.70;4.70;;;16.20;99.90;;;;;;5059664;28;20454;-43
2022/05/16 04:55:23;;;;;;;5.63;5.13;;;16.20;99.90;;;;;;5060876;28;21068;-43
2022/05/16 04:57:50;;;;;;;9.10;6.43;;;16.20;99.90;;;;;;5064272;28;20975;-43
2022/05/16 05:00:18;;;;;;;7.10;5.30;;;16.20;99.90;;;;;;5066334;28;20431;-43
2022/05/16 05:02:44;;;;;;;5.90;5.30;;;16.30;99.90;;;;;;5068095;28;20936;-43
2022/05/16 05:05:11;;;;;;;4.97;4.47;;;16.30;99.90;;;;;;5068718;28;20448;-43
2022/05/16 05:07:37;;;;;;;5.60;4.20;;;16.50;99.90;;;;;;5058838;28;20442;-43
2022/05/16 05:15:36;;;;;;;6.33;4.33;;;16.80;99.90;;;;;;5066900;28;20462;-43
2022/05/16 05:18:02;;;;;;;8.77;4.40;;;16.90;99.90;;;;;;5059950;28;20847;-43
2022/05/16 05:20:28;;;;;;;5.53;3.90;;;17.00;99.90;;;;;;5067374;28;20419;-44
2022/05/16 05:22:54;;;;;;;4.13;3.73;;;17.10;99.90;;;;;;5059420;28;20444;-44
2022/05/16 05:25:20;;;;;;;5.20;3.87;;;17.20;99.90;;;;;;5062018;28;20725;-43
2022/05/16 05:27:51;;;;;;;5.30;3.83;;;17.40;99.90;;;;;;5068098;28;20177;-44
2022/05/16 05:30:22;;;;;;;3.70;3.30;;;17.50;99.90;;;;;;5067429;28;20935;-43
2022/05/16 05:32:48;;;;;;;5.37;4.37;;;17.70;99.90;;;;;;5083289;28;20458;-44
2022/05/16 05:35:14;;;;;;;4.80;4.30;;;17.80;99.90;;;;;;5068285;28;20458;-43
2022/05/16 05:37:40;;;;;;;4.67;3.90;;;18.00;99.90;;;;;;5060086;28;20704;-44
2022/05/16 05:40:07;;;;;;;8.07;4.00;;;18.10;99.90;;;;;;5065525;28;20451;-43
2022/05/16 05:42:34;;;;;;;4.40;3.57;;;18.30;99.90;;;;;;5065870;28;20628;-43
2022/05/16 05:45:01;;;;;;;6.60;3.83;;;18.40;99.90;;;;;;5065708;28;20465;-43
2022/05/16 05:47:27;;;;;;;6.43;3.97;;;18.60;99.90;;;;;;5066335;28;20451;-44
2022/05/16 05:49:53;;;;;;;7.90;3.67;;;18.70;99.90;;;;;;5062295;28;20537;-43
2022/05/16 05:52:19;;;;;;;5.47;4.20;;;18.80;99.90;;;;;;5065002;28;20839;-43
2022/05/16 05:54:46;;;;;;;7.83;4.67;;;18.80;99.90;;;;;;5063089;28;20420;-43
2022/05/16 05:57:13;;;;;;;6.57;4.07;;;18.80;99.90;;;;;;5065304;28;20209;-43
2022/05/16 05:59:39;;;;;;;7.13;4.17;;;18.80;99.90;;;;;;5067225;28;20685;-44
2022/05/16 06:02:07;;;;;;;8.53;4.20;;;18.80;99.90;;;;;;5063218;28;20423;-43
2022/05/16 06:04:33;;;;;;;4.90;4.33;;;18.90;99.90;;;;;;5066264;28;20431;-43
2022/05/16 06:07:00;;;;;;;4.70;3.90;;;18.90;99.90;;;;;;5064246;28;20900;-43
2022/05/16 06:09:26;;;;;;;5.10;3.93;;;19.00;99.90;;;;;;5061811;28;20825;-43
2022/05/16 06:11:52;;;;;;;4.40;4.00;;;19.00;99.90;;;;;;5066455;28;20427;-43
2022/05/16 06:14:18;;;;;;;6.10;3.77;;;19.00;99.90;;;;;;5067732;28;20423;-43
2022/05/16 06:16:43;;;;;;;7.90;4.17;;;19.10;99.90;;;;;;5068659;28;20213;-44
2022/05/16 06:19:09;;;;;;;7.93;4.50;;;19.10;99.90;;;;;;5069176;28;20751;-43
2022/05/16 06:21:36;;;;;;;8.63;4.20;;;19.10;99.90;;;;;;5083671;28;20640;-43
2022/05/16 06:24:02;;;;;;;6.33;3.70;;;19.10;99.90;;;;;;5065595;28;20215;-43
2022/05/16 06:26:28;;;;;;;4.20;3.80;;;19.10;99.90;;;;;;5068688;28;20429;-43
2022/05/16 06:28:55;;;;;;;6.03;3.63;;;19.20;99.90;;;;;;5068800;28;20427;-43
2022/05/16 06:31:21;;;;;;;6.50;4.90;;;19.10;99.90;;;;;;5068254;28;20435;-43
2022/05/16 06:33:47;;;;;;;7.77;4.20;;;19.20;99.90;;;;;;5069063;28;20784;-43
2022/05/16 06:36:13;;;;;;;4.37;3.60;;;19.20;99.90;;;;;;5068748;28;20217;-43
2022/05/16 06:38:39;;;;;;;4.30;3.90;;;19.20;99.90;;;;;;5060653;28;20219;-43
2022/05/16 06:41:05;;;;;;;5.63;4.07;;;19.20;99.90;;;;;;5071555;28;21166;-43
2022/05/16 06:43:32;;;;;;;6.63;4.27;;;19.20;99.90;;;;;;5077351;28;20191;-43
2022/05/16 06:45:59;;;;;;;4.60;4.10;;;19.10;99.90;;;;;;5076287;28;20426;-43
2022/05/16 06:48:25;;;;;;;8.10;3.83;;;19.20;99.90;;;;;;5077746;28;20490;-43
2022/05/16 06:50:52;;;;;;;6.17;3.97;;;19.20;99.90;;;;;;5074987;28;20434;-43
2022/05/16 06:53:22;;;;;;;7.50;4.23;;;19.20;99.90;;;;;;5071093;28;20446;-43
2022/05/16 06:55:48;;;;;;;6.07;3.97;;;19.20;99.90;;;;;;5075030;28;20473;-43
2022/05/16 06:58:14;;;;;;;5.33;4.33;;;19.30;99.90;;;;;;5080321;28;20415;-43
2022/05/16 07:00:39;;;;;;;5.60;4.60;;;19.40;99.90;;;;;;5075017;28;20424;-43
2022/05/16 07:03:06;;;;;;;6.07;4.10;;;19.40;99.90;;;;;;5079177;28;20755;-43
2022/05/16 07:05:32;;;;;;;6.53;4.00;;;19.50;99.90;;;;;;5072567;28;20872;-43
2022/05/16 07:07:58;;;;;;;4.73;3.73;;;19.50;99.90;;;;;;5065023;28;20452;-43
2022/05/16 07:10:25;;;;;;;5.70;4.70;;;19.60;99.90;;;;;;5062099;28;20446;-43
2022/05/16 07:12:51;;;;;;;5.37;4.37;;;19.70;99.90;;;;;;5068005;28;20181;-43
2022/05/16 07:15:17;;;;;;;5.77;3.93;;;19.70;99.90;;;;;;5068448;28;20492;-43
2022/05/16 07:17:43;;;;;;;7.97;4.43;;;19.70;99.90;;;;;;5068306;28;20423;-43
2022/05/16 07:20:10;;;;;;;4.60;4.10;;;19.70;99.90;;;;;;5070867;28;20431;-43
2022/05/16 07:22:39;;;;;;;3.83;3.40;;;19.80;99.90;;;;;;5087679;28;20220;-43
2022/05/16 07:25:05;;;;;;;5.43;4.10;;;19.90;99.90;;;;;;5063719;28;20771;-43
2022/05/16 07:30:15;;;;;;;4.77;4.00;;;20.00;99.90;;;;;;5071416;28;20419;-43
2022/05/16 07:32:44;;;;;;;7.93;3.37;;;20.00;99.90;;;;;;5070717;28;20473;-43
2022/05/16 07:35:12;;;;;;;4.93;3.60;;;20.00;99.90;;;;;;5071898;28;20640;-43
2022/05/16 07:37:38;;;;;;;3.93;3.50;;;20.00;99.90;;;;;;5071206;28;20425;-43
2022/05/16 07:40:07;;;;;;;4.63;3.10;;;20.10;99.90;;;;;;5061450;28;20427;-47
2022/05/16 07:42:33;;;;;;;5.73;4.10;;;20.20;99.90;;;;;;5072606;28;20215;-47
2022/05/16 07:45:00;;;;;;;4.23;3.90;;;20.10;99.90;;;;;;5090425;28;20410;-47
2022/05/16 07:47:26;;;;;;;6.60;3.30;;;20.10;99.90;;;;;;5071535;28;20952;-47
2022/05/16 07:49:52;;;;;;;8.10;3.70;;;20.10;99.90;;;;;;5070910;28;20463;-47
2022/05/16 07:52:17;;;;;;;4.13;3.70;;;20.10;99.90;;;;;;5071689;28;20438;-47
2022/05/16 07:54:43;;;;;;;6.60;4.27;;;20.20;99.90;;;;;;5058621;28;20653;-47
2022/05/16 07:57:09;;;;;;;5.70;3.60;;;20.10;99.90;;;;;;5053234;28;20211;-47
2022/05/16 07:59:34;;;;;;;5.20;3.43;;;20.10;99.90;;;;;;5070946;28;20177;-47
2022/05/16 08:02:00;;;;;;;6.00;3.90;;;20.10;99.90;;;;;;5071401;28;20189;-47
2022/05/16 08:04:26;;;;;;;4.20;3.77;;;20.00;99.90;;;;;;5086840;28;20643;-47
2022/05/16 08:06:52;;;;;;;4.93;3.63;;;20.10;99.90;;;;;;5070038;28;20420;-47
2022/05/16 08:12:02;;;;;;;5.20;3.67;;;20.00;99.90;;;;;;5071057;28;20211;-47
2022/05/16 08:14:28;;;;;;;8.67;4.30;;;20.00;99.90;;;;;;5071348;28;20438;-47
2022/05/16 08:16:55;;;;;;;5.53;3.63;;;20.00;99.90;;;;;;5071120;28;20227;-47
2022/05/16 08:19:20;;;;;;;4.13;3.73;;;20.10;99.90;;;;;;5071107;28;20423;-47
2022/05/16 08:21:48;;;;;;;4.73;3.30;;;20.10;99.90;;;;;;5070473;28;20442;-47
2022/05/16 08:24:14;;;;;;;6.80;3.80;;;20.20;99.90;;;;;;5062722;28;20181;-47
2022/05/16 08:26:40;;;;;;;5.60;3.33;;;20.20;99.90;;;;;;5067644;28;20426;-47
2022/05/16 08:29:06;;;;;;;7.60;4.13;;;20.20;99.90;;;;;;5070918;28;20997;-47
2022/05/16 08:31:32;;;;;;;3.90;3.50;;;20.30;99.90;;;;;;5067854;28;20204;-47
2022/05/16 08:33:58;;;;;;;4.77;3.37;;;20.30;99.90;;;;;;5070787;28;20172;-47
2022/05/16 08:41:57;;;;;;;4.03;3.60;;;20.40;99.90;;;;;;5068558;28;20750;-47
2022/05/16 08:44:23;;;;;;;6.77;3.50;;;20.50;99.90;;;;;;5070562;28;20463;-47
2022/05/16 08:46:55;;;;;;;3.73;3.37;;;20.40;99.90;;;;;;5070390;28;20451;-47
2022/05/16 08:49:36;;;;;;;3.93;3.20;;;20.50;99.90;;;;;;5070699;28;20188;-47
2022/05/16 08:52:27;;;;;;;4.67;3.40;;;20.60;99.90;;;;;;5070250;28;20839;-47
2022/05/16 08:55:22;;;;;;;4.70;3.53;;;20.60;99.90;;;;;;5040280;28;20447;-47
2022/05/16 08:57:54;;;;;;;4.70;3.67;;;20.70;99.90;;;;;;5067963;28;20442;-47
2022/05/16 09:00:29;;;;;;;4.00;3.60;;;20.70;99.90;;;;;;5069983;28;20426;-47
2022/05/16 09:02:57;;;;;;;5.10;3.50;;;20.80;99.90;;;;;;5070114;28;20422;-47
2022/05/16 09:05:37;;;;;;;3.60;3.23;;;20.80;99.90;;;;;;5070163;28;20473;-47
2022/05/16 09:08:07;;;;;;;7.73;4.37;;;20.80;99.90;;;;;;5070053;28;20480;-47
2022/05/16 09:10:54;;;;;;;4.13;3.53;;;20.70;99.90;;;;;;5059446;28;20447;-47
2022/05/16 09:13:42;;;;;;;4.87;4.03;;;20.70;99.90;;;;;;5063987;28;20415;-47
2022/05/16 09:16:47;;;;;;;9.53;4.20;;;20.70;99.90;;;;;;5070107;28;20521;-47
2022/05/16 09:19:31;;;;;;;4.43;4.03;;;20.60;99.90;;;;;;5069968;28;20418;-47
2022/05/16 09:22:03;;;;;;;5.40;3.97;;;20.50;99.90;;;;;;5069222;28;20415;-47
2022/05/16 09:24:36;;;;;;;5.37;4.20;;;20.50;99.90;;;;;;5062466;28;20424;-47
2022/05/16 09:28:34;;;;;;;5.77;4.00;;;20.50;99.90;;;;;;5069419;28;20921;-47
2022/05/16 09:30:05;;;;;;;4.17;3.77;;;20.50;99.90;;;;;;5068432;28;20442;-48
2022/05/16 09:32:35;;;;;;;5.73;4.53;;;20.50;99.90;;;;;;5069439;28;20461;-47
2022/05/16 09:35:01;;;;;;;5.13;3.80;;;20.40;99.90;;;;;;5068419;28;20423;-47
2022/05/16 09:37:28;;;;;;;6.47;3.80;;;20.30;99.90;;;;;;5068166;28;20466;-47
2022/05/16 09:39:54;;;;;;;4.73;3.77;;;20.30;99.90;;;;;;5060663;28;20499;-47
2022/05/16 09:42:24;;;;;;;7.50;4.10;;;20.30;99.90;;;;;;5069158;28;20929;-47
2022/05/16 09:44:57;;;;;;;8.00;4.23;;;20.40;99.90;;;;;;5069247;28;20419;-47
2022/05/16 09:47:29;;;;;;;5.30;4.23;;;20.40;99.90;;;;;;5069544;28;20852;-47
2022/05/16 09:50:04;;;;;;;9.87;5.00;;;20.40;99.90;;;;;;5068733;28;20545;-47
2022/05/16 09:52:37;;;;;;;5.27;4.23;;;20.40;99.90;;;;;;5069407;28;20415;-47
2022/05/16 09:55:10;;;;;;;5.33;4.60;;;20.50;99.90;;;;;;5056997;28;20431;-47
2022/05/16 09:57:48;;;;;;;7.30;4.50;;;20.50;99.90;;;;;;5065356;28;20435;-47
2022/05/16 10:00:22;;;;;;;4.57;4.07;;;20.60;99.90;;;;;;5068715;28;20423;-47
2022/05/16 10:03:14;;;;;;;6.90;4.43;;;20.60;99.90;;;;;;5067873;28;20419;-47
2022/05/16 10:05:47;;;;;;;6.80;4.03;;;20.80;99.90;;;;;;5052512;28;20461;-47
2022/05/16 10:08:22;;;;;;;5.80;3.40;;;20.90;99.90;;;;;;5069316;28;20491;-47
2022/05/16 10:10:48;;;;;;;5.80;4.40;;;21.10;99.90;;;;;;5055960;28;20442;-47
2022/05/16 10:13:15;;;;;;;6.33;3.73;;;21.30;99.90;;;;;;5069042;28;20423;-47
2022/05/16 10:15:41;;;;;;;4.80;3.90;;;21.50;99.90;;;;;;5068915;28;20485;-47
2022/05/16 10:18:13;;;;;;;5.03;4.00;;;21.60;99.90;;;;;;5069190;28;20415;-47
2022/05/16 10:20:45;;;;;;;4.30;3.90;;;21.70;99.90;;;;;;5068131;28;20505;-47
2022/05/16 10:23:21;;;;;;;4.90;3.60;;;21.80;99.90;;;;;;5069273;28;21153;-47
2022/05/16 10:25:50;;;;;;;10.80;3.97;;;21.90;99.90;;;;;;5063343;28;20792;-47
2022/05/16 10:28:31;;;;;;;4.10;3.57;;;22.00;99.90;;;;;;5068870;28;20507;-47
2022/05/16 10:33:46;;;;;;;4.47;4.03;;;22.40;99.90;;;;;;5068842;28;20423;-47
2022/05/16 10:36:30;;;;;;;4.10;3.70;;;22.70;99.90;;;;;;5068612;28;20977;-47
2022/05/16 10:39:19;;;;;;;3.57;3.27;;;22.80;99.90;;;;;;5073999;28;20445;-47
2022/05/16 10:42:13;;;;;;;4.50;3.10;;;23.00;99.90;;;;;;5060594;28;20427;-47
2022/05/16 10:44:42;;;;;;;4.83;3.73;;;23.00;99.90;;;;;;5067606;28;20945;-47
2022/05/16 10:47:12;;;;;;;3.93;3.30;;;23.00;99.90;;;;;;5068613;28;20488;-47
2022/05/16 10:49:59;;;;;;;5.90;3.30;;;23.10;99.90;;;;;;5081377;28;20824;-47
2022/05/16 10:52:45;;;;;;;5.90;3.27;;;23.10;99.90;;;;;;5089011;28;20467;-47
2022/05/16 10:55:11;;;;;;;4.40;2.87;;;23.10;99.90;;;;;;5079198;28;20444;-47
2022/05/16 10:58:01;;;;;;;3.13;2.83;;;23.20;99.90;;;;;;5068954;28;20443;-47
2022/05/16 11:00:41;;;;;;;3.07;2.87;;;23.30;99.90;;;;;;5069482;28;20518;-47
2022/05/16 11:03:09;;;;;;;3.70;3.40;;;23.50;99.90;;;;;;5071391;28;20839;-47
2022/05/16 11:06:05;;;;;;;6.67;3.57;;;23.70;99.90;;;;;;5071413;28;20430;-47
2022/05/16 11:08:50;;;;;;;5.37;3.67;;;23.90;99.90;;;;;;5072594;28;20431;-47
2022/05/16 11:11:41;;;;;;;3.43;2.90;;;24.10;99.80;;;;;;5074950;28;21175;-47
2022/05/16 11:14:19;;;;;;;4.77;3.30;;;24.20;99.10;;;;;;5066649;28;20828;-47
2022/05/16 11:16:46;;;;;;;6.30;3.90;;;24.20;98.60;;;;;;5072076;28;21360;-47
2022/05/16 11:19:27;;;;;;;3.23;2.93;;;24.20;98.50;;;;;;5072245;28;20506;-47
2022/05/16 11:22:09;;;;;;;4.30;3.27;;;24.10;99.20;;;;;;5070395;28;20782;-47
2022/05/16 11:24:47;;;;;;;4.80;3.30;;;24.10;98.90;;;;;;5069320;28;20430;-47
2022/05/16 11:27:32;;;;;;;4.70;3.30;;;24.00;99.00;;;;;;5067291;28;20419;-47
2022/05/16 11:30:10;;;;;;;4.20;3.13;;;24.00;99.50;;;;;;5071544;28;20434;-47
2022/05/16 11:32:46;;;;;;;6.63;3.23;;;24.10;99.90;;;;;;5072050;28;20419;-47
2022/05/16 11:35:27;;;;;;;3.90;3.50;;;24.00;99.80;;;;;;5071798;28;20449;-47
2022/05/16 11:38:14;;;;;;;5.43;3.43;;;24.00;99.90;;;;;;5070622;28;20419;-47
2022/05/16 11:41:01;;;;;;;4.20;3.60;;;24.10;99.90;;;;;;5072011;28;20434;-47
2022/05/16 11:43:28;;;;;;;7.20;3.80;;;24.10;99.90;;;;;;5071786;28;20426;-47
2022/05/16 11:46:31;;;;;;;4.57;3.50;;;24.40;99.90;;;;;;5071527;28;20419;-47
2022/05/16 11:49:18;;;;;;;5.17;3.67;;;24.60;99.90;;;;;;5060777;28;20884;-47
2022/05/16 11:52:03;;;;;;;3.87;3.13;;;24.90;99.90;;;;;;5071348;28;20427;-47
2022/05/16 11:54:35;;;;;;;3.53;3.10;;;25.10;99.40;;;;;;5070856;28;20431;-47
2022/05/16 12:03:16;;;;;;;3.77;3.33;;;25.50;99.30;;;;;;5071308;28;21244;-47
2022/05/16 12:05:46;;;;;;;4.97;3.73;;;25.70;98.80;;;;;;5067250;28;20447;-47
2022/05/16 12:08:22;;;;;;;3.67;3.37;;;25.70;99.00;;;;;;5071430;28;21260;-47
2022/05/16 12:11:10;;;;;;;7.13;3.97;;;25.80;99.00;;;;;;5060830;28;20902;-48
2022/05/16 12:13:55;;;;;;;5.73;3.70;;;25.80;97.60;;;;;;5067724;28;20435;-47
2022/05/16 12:16:28;;;;;;;5.00;3.03;;;25.90;98.80;;;;;;5068438;28;20480;-47
2022/05/16 12:19:29;;;;;;;5.33;3.60;;;26.00;98.20;;;;;;5071269;28;20810;-47
2022/05/16 12:21:56;;;;;;;3.70;3.37;;;26.10;98.20;;;;;;5046075;28;20419;-47
2022/05/16 12:24:27;;;;;;;4.57;3.80;;;26.20;97.50;;;;;;5071239;28;20431;-47
2022/05/16 12:27:16;;;;;;;5.77;3.70;;;26.20;97.60;;;;;;5048590;28;20428;-47
2022/05/16 12:29:49;;;;;;;5.93;3.47;;;26.40;96.60;;;;;;5065184;28;20541;-47
2022/05/16 12:32:22;;;;;;;4.37;3.30;;;26.40;96.20;;;;;;5069867;28;20526;-47
2022/05/16 12:34:50;;;;;;;3.70;3.33;;;26.40;95.80;;;;;;5071138;28;20430;-47
2022/05/16 12:37:19;;;;;;;6.20;3.50;;;26.30;95.50;;;;;;5066544;28;20545;-47
2022/05/16 12:40:07;;;;;;;5.53;3.73;;;26.20;95.80;;;;;;5079293;28;20422;-47
2022/05/16 12:42:56;;;;;;;7.00;3.50;;;26.00;96.90;;;;;;5073691;28;20506;-47
2022/05/16 12:45:37;;;;;;;4.73;3.23;;;25.90;97.10;;;;;;5041107;28;20423;-48
2022/05/16 12:48:42;;;;;;;4.10;3.37;;;25.80;96.50;;;;;;5070545;28;20918;-47
2022/05/16 12:51:29;;;;;;;3.47;2.70;;;25.70;95.90;;;;;;5068725;28;20909;-47
2022/05/16 12:54:21;;;;;;;3.63;2.70;;;25.70;94.80;;;;;;5070494;28;20502;-47
2022/05/16 12:56:53;;;;;;;7.97;3.80;;;25.70;94.50;;;;;;5064868;28;20499;-47
2022/05/16 12:59:34;;;;;;;9.63;4.37;;;25.60;95.40;;;;;;5070285;28;20420;-47
2022/05/16 13:02:43;;;;;;;4.67;3.80;;;25.50;96.30;;;;;;5057707;28;20468;-47
2022/05/16 13:05:40;;;;;;;5.57;4.10;;;25.40;97.10;;;;;;5060794;28;20504;-47
2022/05/16 13:08:12;;;;;;;5.53;4.30;;;25.40;97.90;;;;;;5055162;28;20564;-48
2022/05/16 13:10:49;;;;;;;3.83;3.43;;;25.30;97.50;;;;;;5063379;28;20462;-47
2022/05/16 13:13:56;;;;;;;4.70;4.20;;;25.20;97.90;;;;;;5064181;28;20415;-47
2022/05/16 13:16:40;;;;;;;6.77;4.10;;;25.20;97.40;;;;;;5068104;28;20462;-47
2022/05/16 13:19:17;;;;;;;5.23;3.80;;;25.00;97.40;;;;;;5068863;28;20430;-48
2022/05/16 13:21:54;;;;;;;6.03;4.50;;;25.00;97.80;;;;;;5069102;28;20474;-48
2022/05/16 13:24:21;;;;;;;6.77;4.47;;;24.90;97.70;;;;;;5070087;28;20820;-47
2022/05/16 13:29:35;;;;;;;7.57;4.77;;;24.70;97.70;;;;;;5064239;28;20453;-47
2022/05/16 13:32:14;;;;;;;6.10;3.80;;;24.50;98.50;;;;;;5069125;28;20454;-47
2022/05/16 13:34:45;;;;;;;7.10;5.00;;;24.40;99.20;;;;;;5069989;28;20189;-47
2022/05/16 13:37:12;;;;;;;9.07;4.80;;;24.20;99.90;;;;;;5068764;28;20459;-47
2022/05/16 13:39:47;;;;;;;8.33;5.60;;;24.20;99.90;;;;;;5079473;28;20426;-48
2022/05/16 13:42:13;;;;;;;8.20;5.30;;;24.10;99.90;;;;;;5062698;28;20445;-48
2022/05/16 13:44:42;;;;;;;18.67;5.70;;;24.00;99.90;;;;;;5069285;28;20793;-48